sensor_id;sensor_type;location;lat;lon;timestamp;temperature;humidity
55203;DHT22;41077;52.956;6.796;2023-06-04T06:48:03;23.30;56.00
55203;DHT22;41077;52.956;6.796;2023-06-04T06:57:47;14.20;99.90
55203;DHT22;41077;52.956;6.796;2023-06-04T07:00:13;14.30;99.90
55203;DHT22;41077;52.956;6.796;2023-06-04T07:02:39;14.30;99.90
55203;DHT22;41077;52.956;6.796;2023-06-04T07:05:05;14.40;99.90
55203;DHT22;41077;52.956;6.796;2023-06-04T07:07:31;14.40;99.90
55203;DHT22;41077;52.956;6.796;2023-06-04T07:09:56;14.50;99.90
55203;DHT22;41077;52.956;6.796;2023-06-04T07:12:22;14.60;99.90
55203;DHT22;41077;52.956;6.796;2023-06-04T07:14:47;14.70;99.90
55203;DHT22;41077;52.956;6.796;2023-06-04T07:17:13;14.70;99.90
55203;DHT22;41077;52.956;6.796;2023-06-04T07:19:39;14.80;99.90
55203;DHT22;41077;52.956;6.796;2023-06-04T07:22:04;14.90;99.90
55203;DHT22;41077;52.956;6.796;2023-06-04T07:24:30;15.00;99.90
55203;DHT22;41077;52.956;6.796;2023-06-04T07:26:56;15.10;99.90
55203;DHT22;41077;52.956;6.796;2023-06-04T07:29:22;15.10;99.90
55203;DHT22;41077;52.956;6.796;2023-06-04T07:31:47;15.20;99.90
55203;DHT22;41077;52.956;6.796;2023-06-04T07:34:13;15.30;99.90
55203;DHT22;41077;52.956;6.796;2023-06-04T07:36:39;15.30;99.90
55203;DHT22;41077;52.956;6.796;2023-06-04T07:39:04;15.30;99.90
55203;DHT22;41077;52.956;6.796;2023-06-04T07:41:30;15.40;99.90
55203;DHT22;41077;52.956;6.796;2023-06-04T07:43:56;15.50;99.90
55203;DHT22;41077;52.956;6.796;2023-06-04T07:46:22;15.60;99.90
55203;DHT22;41077;52.956;6.796;2023-06-04T07:48:48;15.70;99.90
55203;DHT22;41077;52.956;6.796;2023-06-04T07:51:13;15.80;99.90
55203;DHT22;41077;52.956;6.796;2023-06-04T07:53:39;15.90;99.90
55203;DHT22;41077;52.956;6.796;2023-06-04T07:56:06;16.00;99.90
55203;DHT22;41077;52.956;6.796;2023-06-04T07:58:32;16.00;99.90
55203;DHT22;41077;52.956;6.796;2023-06-04T08:00:57;16.10;99.90
55203;DHT22;41077;52.956;6.796;2023-06-04T08:03:23;16.20;99.90
55203;DHT22;41077;52.956;6.796;2023-06-04T08:05:49;16.20;99.90
55203;DHT22;41077;52.956;6.796;2023-06-04T08:08:15;16.30;99.90
55203;DHT22;41077;52.956;6.796;2023-06-04T08:10:41;16.30;99.90
55203;DHT22;41077;52.956;6.796;2023-06-04T08:13:06;16.40;99.90
55203;DHT22;41077;52.956;6.796;2023-06-04T08:15:34;16.50;99.90
55203;DHT22;41077;52.956;6.796;2023-06-04T08:18:00;16.60;99.90
55203;DHT22;41077;52.956;6.796;2023-06-04T08:20:25;16.80;99.90
55203;DHT22;41077;52.956;6.796;2023-06-04T08:22:51;16.80;99.90
55203;DHT22;41077;52.956;6.796;2023-06-04T08:25:17;16.90;99.90
55203;DHT22;41077;52.956;6.796;2023-06-04T08:27:42;17.10;99.90
55203;DHT22;41077;52.956;6.796;2023-06-04T08:30:09;17.20;99.90
55203;DHT22;41077;52.956;6.796;2023-06-04T08:32:35;17.30;99.90
55203;DHT22;41077;52.956;6.796;2023-06-04T08:35:00;17.30;99.90
55203;DHT22;41077;52.956;6.796;2023-06-04T08:37:26;17.30;99.90
55203;DHT22;41077;52.956;6.796;2023-06-04T08:39:52;17.40;99.90
55203;DHT22;41077;52.956;6.796;2023-06-04T08:42:41;17.60;99.90
55203;DHT22;41077;52.956;6.796;2023-06-04T08:45:11;17.80;99.90
55203;DHT22;41077;52.956;6.796;2023-06-04T08:47:43;17.80;99.90
55203;DHT22;41077;52.956;6.796;2023-06-04T08:50:10;17.80;99.90
55203;DHT22;41077;52.956;6.796;2023-06-04T08:52:37;17.80;99.90
55203;DHT22;41077;52.956;6.796;2023-06-04T08:57:32;17.90;99.90
55203;DHT22;41077;52.956;6.796;2023-06-04T08:59:58;18.00;99.90
55203;DHT22;41077;52.956;6.796;2023-06-04T09:02:27;18.10;99.90
55203;DHT22;41077;52.956;6.796;2023-06-04T09:04:53;18.10;99.90
55203;DHT22;41077;52.956;6.796;2023-06-04T09:07:19;18.20;99.90
55203;DHT22;41077;52.956;6.796;2023-06-04T09:09:46;18.20;99.90
55203;DHT22;41077;52.956;6.796;2023-06-04T09:12:24;18.30;99.90
55203;DHT22;41077;52.956;6.796;2023-06-04T09:14:51;18.50;99.90
55203;DHT22;41077;52.956;6.796;2023-06-04T09:17:23;18.70;99.90
55203;DHT22;41077;52.956;6.796;2023-06-04T09:19:50;18.70;98.80
55203;DHT22;41077;52.956;6.796;2023-06-04T09:22:18;18.70;98.60
55203;DHT22;41077;52.956;6.796;2023-06-04T09:24:46;18.60;97.80
55203;DHT22;41077;52.956;6.796;2023-06-04T09:27:19;18.60;97.60
55203;DHT22;41077;52.956;6.796;2023-06-04T09:29:55;18.70;96.60
55203;DHT22;41077;52.956;6.796;2023-06-04T09:32:26;18.70;95.70
55203;DHT22;41077;52.956;6.796;2023-06-04T09:35:11;18.80;96.10
55203;DHT22;41077;52.956;6.796;2023-06-04T09:37:39;19.00;95.10
55203;DHT22;41077;52.956;6.796;2023-06-04T09:40:05;19.10;93.20
55203;DHT22;41077;52.956;6.796;2023-06-04T09:42:44;19.20;92.90
55203;DHT22;41077;52.956;6.796;2023-06-04T09:45:11;19.10;92.20
55203;DHT22;41077;52.956;6.796;2023-06-04T09:47:44;19.20;92.20
55203;DHT22;41077;52.956;6.796;2023-06-04T09:50:13;19.30;92.70
55203;DHT22;41077;52.956;6.796;2023-06-04T09:52:38;19.40;92.60
55203;DHT22;41077;52.956;6.796;2023-06-04T09:55:18;19.60;92.00
55203;DHT22;41077;52.956;6.796;2023-06-04T09:57:50;19.80;92.40
55203;DHT22;41077;52.956;6.796;2023-06-04T10:00:17;19.90;91.20
55203;DHT22;41077;52.956;6.796;2023-06-04T10:02:44;20.00;91.10
55203;DHT22;41077;52.956;6.796;2023-06-04T10:05:11;20.20;90.90
55203;DHT22;41077;52.956;6.796;2023-06-04T10:07:44;20.20;90.60
55203;DHT22;41077;52.956;6.796;2023-06-04T10:10:20;20.30;90.50
55203;DHT22;41077;52.956;6.796;2023-06-04T10:12:50;20.30;88.70
55203;DHT22;41077;52.956;6.796;2023-06-04T10:15:19;20.30;89.80
55203;DHT22;41077;52.956;6.796;2023-06-04T10:17:47;20.40;90.00
55203;DHT22;41077;52.956;6.796;2023-06-04T10:20:13;20.50;88.40
55203;DHT22;41077;52.956;6.796;2023-06-04T10:22:39;20.50;86.70
55203;DHT22;41077;52.956;6.796;2023-06-04T10:25:05;20.50;86.80
55203;DHT22;41077;52.956;6.796;2023-06-04T10:27:32;20.50;86.00
55203;DHT22;41077;52.956;6.796;2023-06-04T10:30:01;20.60;84.80
55203;DHT22;41077;52.956;6.796;2023-06-04T10:32:30;20.70;84.90
55203;DHT22;41077;52.956;6.796;2023-06-04T10:34:57;20.60;82.50
55203;DHT22;41077;52.956;6.796;2023-06-04T10:37:26;20.60;82.20
55203;DHT22;41077;52.956;6.796;2023-06-04T10:39:58;20.60;82.60
55203;DHT22;41077;52.956;6.796;2023-06-04T10:42:25;20.60;80.30
55203;DHT22;41077;52.956;6.796;2023-06-04T10:44:55;20.60;80.20
55203;DHT22;41077;52.956;6.796;2023-06-04T10:47:27;20.80;79.10
55203;DHT22;41077;52.956;6.796;2023-06-04T10:50:10;20.90;78.00
55203;DHT22;41077;52.956;6.796;2023-06-04T10:52:36;21.00;77.50
55203;DHT22;41077;52.956;6.796;2023-06-04T10:55:06;21.00;77.30
55203;DHT22;41077;52.956;6.796;2023-06-04T10:57:33;21.10;78.50
55203;DHT22;41077;52.956;6.796;2023-06-04T11:00:00;21.20;77.50
55203;DHT22;41077;52.956;6.796;2023-06-04T11:02:26;21.30;78.70
55203;DHT22;41077;52.956;6.796;2023-06-04T11:05:02;21.60;79.10
55203;DHT22;41077;52.956;6.796;2023-06-04T11:07:41;21.70;76.50
55203;DHT22;41077;52.956;6.796;2023-06-04T11:10:09;21.70;75.00
55203;DHT22;41077;52.956;6.796;2023-06-04T11:12:46;21.70;76.70
55203;DHT22;41077;52.956;6.796;2023-06-04T11:15:13;21.90;72.10
55203;DHT22;41077;52.956;6.796;2023-06-04T11:17:52;21.80;74.20
55203;DHT22;41077;52.956;6.796;2023-06-04T11:20:20;21.90;75.70
55203;DHT22;41077;52.956;6.796;2023-06-04T11:22:56;21.90;76.20
55203;DHT22;41077;52.956;6.796;2023-06-04T11:25:25;21.90;74.30
55203;DHT22;41077;52.956;6.796;2023-06-04T11:27:55;21.90;76.00
55203;DHT22;41077;52.956;6.796;2023-06-04T11:30:24;22.00;79.00
55203;DHT22;41077;52.956;6.796;2023-06-04T11:32:50;22.20;77.20
55203;DHT22;41077;52.956;6.796;2023-06-04T11:35:24;22.30;77.80
55203;DHT22;41077;52.956;6.796;2023-06-04T11:37:57;22.40;75.90
55203;DHT22;41077;52.956;6.796;2023-06-04T11:40:24;22.60;76.80
55203;DHT22;41077;52.956;6.796;2023-06-04T11:42:52;22.50;75.30
55203;DHT22;41077;52.956;6.796;2023-06-04T11:45:20;22.60;75.70
55203;DHT22;41077;52.956;6.796;2023-06-04T11:47:51;22.80;74.30
55203;DHT22;41077;52.956;6.796;2023-06-04T11:50:17;22.70;73.70
55203;DHT22;41077;52.956;6.796;2023-06-04T11:52:43;22.80;72.70
55203;DHT22;41077;52.956;6.796;2023-06-04T11:55:10;22.90;74.30
55203;DHT22;41077;52.956;6.796;2023-06-04T11:57:37;22.90;73.10
55203;DHT22;41077;52.956;6.796;2023-06-04T12:00:03;23.00;75.10
55203;DHT22;41077;52.956;6.796;2023-06-04T12:02:35;23.10;75.00
55203;DHT22;41077;52.956;6.796;2023-06-04T12:05:14;23.20;73.20
55203;DHT22;41077;52.956;6.796;2023-06-04T12:07:41;23.30;72.30
55203;DHT22;41077;52.956;6.796;2023-06-04T12:10:08;23.30;74.50
55203;DHT22;41077;52.956;6.796;2023-06-04T12:12:40;23.50;73.90
55203;DHT22;41077;52.956;6.796;2023-06-04T12:15:09;23.70;72.40
55203;DHT22;41077;52.956;6.796;2023-06-04T12:17:36;23.80;70.90
55203;DHT22;41077;52.956;6.796;2023-06-04T12:20:06;23.90;71.70
55203;DHT22;41077;52.956;6.796;2023-06-04T12:22:32;24.00;70.10
55203;DHT22;41077;52.956;6.796;2023-06-04T12:24:57;24.10;69.80
55203;DHT22;41077;52.956;6.796;2023-06-04T12:27:26;24.10;71.20
55203;DHT22;41077;52.956;6.796;2023-06-04T12:32:24;24.00;70.50
55203;DHT22;41077;52.956;6.796;2023-06-04T12:34:50;23.80;69.80
55203;DHT22;41077;52.956;6.796;2023-06-04T12:37:16;23.90;70.60
55203;DHT22;41077;52.956;6.796;2023-06-04T12:39:42;23.80;69.70
55203;DHT22;41077;52.956;6.796;2023-06-04T12:42:08;23.60;70.40
55203;DHT22;41077;52.956;6.796;2023-06-04T12:44:40;23.80;72.10
55203;DHT22;41077;52.956;6.796;2023-06-04T12:47:07;24.20;71.70
55203;DHT22;41077;52.956;6.796;2023-06-04T12:49:34;24.40;69.70
55203;DHT22;41077;52.956;6.796;2023-06-04T12:52:00;24.50;69.50
55203;DHT22;41077;52.956;6.796;2023-06-04T12:54:26;24.60;65.80
55203;DHT22;41077;52.956;6.796;2023-06-04T12:56:53;24.60;69.00
55203;DHT22;41077;52.956;6.796;2023-06-04T12:59:19;24.70;69.20
55203;DHT22;41077;52.956;6.796;2023-06-04T13:01:45;24.90;68.90
55203;DHT22;41077;52.956;6.796;2023-06-04T13:04:10;25.00;68.40
55203;DHT22;41077;52.956;6.796;2023-06-04T13:06:36;25.00;69.00
55203;DHT22;41077;52.956;6.796;2023-06-04T13:09:04;24.90;68.50
55203;DHT22;41077;52.956;6.796;2023-06-04T13:11:37;25.00;67.90
55203;DHT22;41077;52.956;6.796;2023-06-04T13:14:03;25.10;67.50
55203;DHT22;41077;52.956;6.796;2023-06-04T13:16:28;25.10;67.90
55203;DHT22;41077;52.956;6.796;2023-06-04T13:18:54;25.10;68.00
55203;DHT22;41077;52.956;6.796;2023-06-04T13:21:19;25.10;68.10
55203;DHT22;41077;52.956;6.796;2023-06-04T13:23:45;25.10;68.30
55203;DHT22;41077;52.956;6.796;2023-06-04T13:26:11;25.10;67.50
55203;DHT22;41077;52.956;6.796;2023-06-04T13:28:38;24.60;67.20
55203;DHT22;41077;52.956;6.796;2023-06-04T13:31:03;24.10;68.00
55203;DHT22;41077;52.956;6.796;2023-06-04T13:35:55;23.80;69.30
55203;DHT22;41077;52.956;6.796;2023-06-04T13:38:21;23.30;71.60
55203;DHT22;41077;52.956;6.796;2023-06-04T13:40:46;23.30;70.20
55203;DHT22;41077;52.956;6.796;2023-06-04T13:43:12;23.30;70.80
55203;DHT22;41077;52.956;6.796;2023-06-04T13:45:38;23.30;71.10
55203;DHT22;41077;52.956;6.796;2023-06-04T13:48:05;23.40;71.80
55203;DHT22;41077;52.956;6.796;2023-06-04T13:50:33;23.80;70.70
55203;DHT22;41077;52.956;6.796;2023-06-04T13:52:59;24.00;71.20
55203;DHT22;41077;52.956;6.796;2023-06-04T13:55:25;24.40;69.90
55203;DHT22;41077;52.956;6.796;2023-06-04T13:57:51;24.50;70.80
55203;DHT22;41077;52.956;6.796;2023-06-04T14:00:16;24.70;70.40
55203;DHT22;41077;52.956;6.796;2023-06-04T14:02:42;24.80;70.20
55203;DHT22;41077;52.956;6.796;2023-06-04T14:05:08;24.70;69.30
55203;DHT22;41077;52.956;6.796;2023-06-04T14:07:34;24.70;70.30
55203;DHT22;41077;52.956;6.796;2023-06-04T14:10:00;24.40;70.60
55203;DHT22;41077;52.956;6.796;2023-06-04T14:12:26;24.20;71.60
55203;DHT22;41077;52.956;6.796;2023-06-04T14:14:51;24.30;71.70
55203;DHT22;41077;52.956;6.796;2023-06-04T14:17:17;24.20;71.10
55203;DHT22;41077;52.956;6.796;2023-06-04T14:19:43;23.80;71.60
55203;DHT22;41077;52.956;6.796;2023-06-04T14:22:10;23.40;72.70
55203;DHT22;41077;52.956;6.796;2023-06-04T14:24:37;23.10;73.70
55203;DHT22;41077;52.956;6.796;2023-06-04T16:26:36;22.70;74.60
55203;DHT22;41077;52.956;6.796;2023-06-04T16:29:02;22.70;77.60
55203;DHT22;41077;52.956;6.796;2023-06-04T16:31:28;23.10;77.30
55203;DHT22;41077;52.956;6.796;2023-06-04T16:33:53;23.50;75.60
55203;DHT22;41077;52.956;6.796;2023-06-04T16:36:19;23.80;74.80
55203;DHT22;41077;52.956;6.796;2023-06-04T16:38:46;24.00;73.80
55203;DHT22;41077;52.956;6.796;2023-06-04T16:41:12;24.10;72.20
55203;DHT22;41077;52.956;6.796;2023-06-04T16:43:37;24.10;72.30
55203;DHT22;41077;52.956;6.796;2023-06-04T16:46:03;24.20;71.60
55203;DHT22;41077;52.956;6.796;2023-06-04T16:48:29;24.40;71.30
55203;DHT22;41077;52.956;6.796;2023-06-04T16:50:54;24.60;70.90
55203;DHT22;41077;52.956;6.796;2023-06-04T16:53:21;24.80;70.50
55203;DHT22;41077;52.956;6.796;2023-06-04T16:55:46;24.50;69.80
55203;DHT22;41077;52.956;6.796;2023-06-04T16:58:12;24.40;69.40
55203;DHT22;41077;52.956;6.796;2023-06-04T17:00:38;24.30;70.00
55203;DHT22;41077;52.956;6.796;2023-06-04T17:03:04;24.00;69.80
55203;DHT22;41077;52.956;6.796;2023-06-04T17:05:29;23.70;70.10
55203;DHT22;41077;52.956;6.796;2023-06-04T17:07:55;23.30;70.50
55203;DHT22;41077;52.956;6.796;2023-06-04T17:44:28;22.70;71.80
55203;DHT22;41077;52.956;6.796;2023-06-04T17:46:53;19.10;81.90
55203;DHT22;41077;52.956;6.796;2023-06-04T17:49:19;18.90;82.90
